sensor_id;sensor_type;location;lat;lon;timestamp;P1;durP1;ratioP1;P2;durP2;ratioP2
57567;SDS011;43403;51.948;5.922;2023-07-31T00:01:21;2.53;;;1.30;;
57567;SDS011;43403;51.948;5.922;2023-07-31T00:03:47;5.35;;;1.40;;
57567;SDS011;43403;51.948;5.922;2023-07-31T00:06:14;1.80;;;1.15;;
57567;SDS011;43403;51.948;5.922;2023-07-31T00:08:40;2.20;;;1.50;;
57567;SDS011;43403;51.948;5.922;2023-07-31T00:11:07;2.03;;;1.40;;
57567;SDS011;43403;51.948;5.922;2023-07-31T00:13:33;2.55;;;1.17;;
57567;SDS011;43403;51.948;5.922;2023-07-31T00:16:00;1.80;;;1.25;;
57567;SDS011;43403;51.948;5.922;2023-07-31T00:18:26;2.50;;;1.25;;
57567;SDS011;43403;51.948;5.922;2023-07-31T00:20:53;1.25;;;1.00;;
57567;SDS011;43403;51.948;5.922;2023-07-31T00:23:20;2.08;;;1.13;;
57567;SDS011;43403;51.948;5.922;2023-07-31T00:25:46;2.00;;;1.40;;
57567;SDS011;43403;51.948;5.922;2023-07-31T00:28:13;1.83;;;1.30;;
57567;SDS011;43403;51.948;5.922;2023-07-31T00:30:40;1.80;;;1.30;;
57567;SDS011;43403;51.948;5.922;2023-07-31T00:33:06;2.15;;;1.33;;
57567;SDS011;43403;51.948;5.922;2023-07-31T00:35:32;1.80;;;1.40;;
57567;SDS011;43403;51.948;5.922;2023-07-31T00:37:59;2.03;;;1.50;;
57567;SDS011;43403;51.948;5.922;2023-07-31T00:40:26;4.38;;;2.42;;
57567;SDS011;43403;51.948;5.922;2023-07-31T00:42:52;5.68;;;2.60;;
57567;SDS011;43403;51.948;5.922;2023-07-31T00:45:19;6.43;;;3.20;;
57567;SDS011;43403;51.948;5.922;2023-07-31T00:47:46;10.07;;;4.20;;
57567;SDS011;43403;51.948;5.922;2023-07-31T00:50:13;15.30;;;5.05;;
57567;SDS011;43403;51.948;5.922;2023-07-31T00:52:40;15.85;;;5.47;;
57567;SDS011;43403;51.948;5.922;2023-07-31T00:55:07;17.17;;;6.90;;
57567;SDS011;43403;51.948;5.922;2023-07-31T00:57:34;23.38;;;7.38;;
57567;SDS011;43403;51.948;5.922;2023-07-31T01:02:29;23.52;;;8.10;;
57567;SDS011;43403;51.948;5.922;2023-07-31T01:04:56;27.05;;;9.20;;
57567;SDS011;43403;51.948;5.922;2023-07-31T01:10:33;24.05;;;8.35;;
57567;SDS011;43403;51.948;5.922;2023-07-31T01:13:05;32.22;;;9.77;;
57567;SDS011;43403;51.948;5.922;2023-07-31T01:15:32;26.77;;;9.38;;
57567;SDS011;43403;51.948;5.922;2023-07-31T01:17:58;31.40;;;9.32;;
57567;SDS011;43403;51.948;5.922;2023-07-31T01:20:26;22.45;;;8.15;;
57567;SDS011;43403;51.948;5.922;2023-07-31T01:26:12;26.52;;;8.43;;
57567;SDS011;43403;51.948;5.922;2023-07-31T01:31:29;27.77;;;8.85;;
57567;SDS011;43403;51.948;5.922;2023-07-31T01:33:57;24.85;;;8.60;;
57567;SDS011;43403;51.948;5.922;2023-07-31T01:36:26;21.52;;;7.85;;
57567;SDS011;43403;51.948;5.922;2023-07-31T01:38:57;20.80;;;8.25;;
57567;SDS011;43403;51.948;5.922;2023-07-31T01:41:28;29.73;;;8.90;;
57567;SDS011;43403;51.948;5.922;2023-07-31T01:43:54;23.33;;;8.02;;
57567;SDS011;43403;51.948;5.922;2023-07-31T01:46:21;27.63;;;8.32;;
57567;SDS011;43403;51.948;5.922;2023-07-31T01:48:47;23.75;;;8.07;;
57567;SDS011;43403;51.948;5.922;2023-07-31T01:51:14;22.73;;;8.00;;
57567;SDS011;43403;51.948;5.922;2023-07-31T01:53:41;19.75;;;7.55;;
57567;SDS011;43403;51.948;5.922;2023-07-31T01:56:07;19.00;;;8.13;;
57567;SDS011;43403;51.948;5.922;2023-07-31T01:58:34;25.75;;;7.82;;
57567;SDS011;43403;51.948;5.922;2023-07-31T02:01:00;21.33;;;6.85;;
57567;SDS011;43403;51.948;5.922;2023-07-31T02:03:27;23.77;;;7.63;;
57567;SDS011;43403;51.948;5.922;2023-07-31T02:05:53;24.02;;;7.15;;
57567;SDS011;43403;51.948;5.922;2023-07-31T02:08:20;20.02;;;7.03;;
57567;SDS011;43403;51.948;5.922;2023-07-31T02:10:47;24.23;;;7.50;;
57567;SDS011;43403;51.948;5.922;2023-07-31T02:13:13;21.83;;;7.68;;
57567;SDS011;43403;51.948;5.922;2023-07-31T02:15:40;23.02;;;8.00;;
57567;SDS011;43403;51.948;5.922;2023-07-31T02:18:06;19.60;;;7.43;;
57567;SDS011;43403;51.948;5.922;2023-07-31T02:20:33;18.70;;;7.10;;
57567;SDS011;43403;51.948;5.922;2023-07-31T02:23:01;22.73;;;7.10;;
57567;SDS011;43403;51.948;5.922;2023-07-31T02:25:28;24.33;;;7.82;;
57567;SDS011;43403;51.948;5.922;2023-07-31T02:27:54;22.25;;;7.13;;
57567;SDS011;43403;51.948;5.922;2023-07-31T02:30:21;22.35;;;6.53;;
57567;SDS011;43403;51.948;5.922;2023-07-31T02:32:48;22.98;;;7.35;;
57567;SDS011;43403;51.948;5.922;2023-07-31T02:35:15;18.10;;;6.72;;
57567;SDS011;43403;51.948;5.922;2023-07-31T02:37:42;19.08;;;6.70;;
57567;SDS011;43403;51.948;5.922;2023-07-31T02:40:09;20.92;;;6.30;;
57567;SDS011;43403;51.948;5.922;2023-07-31T02:42:36;20.80;;;7.03;;
57567;SDS011;43403;51.948;5.922;2023-07-31T02:45:02;18.25;;;6.82;;
57567;SDS011;43403;51.948;5.922;2023-07-31T02:47:29;22.95;;;7.10;;
57567;SDS011;43403;51.948;5.922;2023-07-31T02:49:56;19.70;;;6.72;;
57567;SDS011;43403;51.948;5.922;2023-07-31T02:52:22;24.42;;;7.03;;
57567;SDS011;43403;51.948;5.922;2023-07-31T02:54:48;20.83;;;6.80;;
57567;SDS011;43403;51.948;5.922;2023-07-31T02:57:15;20.83;;;7.22;;
57567;SDS011;43403;51.948;5.922;2023-07-31T02:59:42;17.02;;;7.45;;
57567;SDS011;43403;51.948;5.922;2023-07-31T03:02:09;21.70;;;7.40;;
57567;SDS011;43403;51.948;5.922;2023-07-31T03:04:36;20.42;;;7.40;;
57567;SDS011;43403;51.948;5.922;2023-07-31T03:07:02;20.55;;;7.05;;
57567;SDS011;43403;51.948;5.922;2023-07-31T03:09:29;23.13;;;6.78;;
57567;SDS011;43403;51.948;5.922;2023-07-31T03:11:56;19.45;;;7.25;;
57567;SDS011;43403;51.948;5.922;2023-07-31T03:14:22;20.10;;;7.43;;
57567;SDS011;43403;51.948;5.922;2023-07-31T03:16:49;21.70;;;7.68;;
57567;SDS011;43403;51.948;5.922;2023-07-31T03:19:15;21.23;;;8.07;;
57567;SDS011;43403;51.948;5.922;2023-07-31T03:21:42;18.67;;;6.90;;
57567;SDS011;43403;51.948;5.922;2023-07-31T03:24:08;18.88;;;7.03;;
57567;SDS011;43403;51.948;5.922;2023-07-31T03:26:35;18.50;;;6.55;;
57567;SDS011;43403;51.948;5.922;2023-07-31T03:31:30;20.33;;;6.68;;
57567;SDS011;43403;51.948;5.922;2023-07-31T03:33:56;23.02;;;7.43;;
57567;SDS011;43403;51.948;5.922;2023-07-31T03:36:23;17.83;;;6.13;;
57567;SDS011;43403;51.948;5.922;2023-07-31T03:38:51;18.50;;;6.30;;
57567;SDS011;43403;51.948;5.922;2023-07-31T03:41:18;21.25;;;7.47;;
57567;SDS011;43403;51.948;5.922;2023-07-31T03:43:46;25.02;;;6.20;;
57567;SDS011;43403;51.948;5.922;2023-07-31T03:46:14;19.27;;;6.45;;
57567;SDS011;43403;51.948;5.922;2023-07-31T03:48:40;23.08;;;6.93;;
57567;SDS011;43403;51.948;5.922;2023-07-31T03:51:07;19.05;;;5.97;;
57567;SDS011;43403;51.948;5.922;2023-07-31T03:53:34;18.00;;;5.97;;
57567;SDS011;43403;51.948;5.922;2023-07-31T03:56:00;21.92;;;7.00;;
57567;SDS011;43403;51.948;5.922;2023-07-31T03:58:27;17.60;;;5.78;;
57567;SDS011;43403;51.948;5.922;2023-07-31T04:00:53;18.65;;;6.28;;
57567;SDS011;43403;51.948;5.922;2023-07-31T04:03:20;23.90;;;6.60;;
57567;SDS011;43403;51.948;5.922;2023-07-31T04:05:47;16.05;;;5.82;;
57567;SDS011;43403;51.948;5.922;2023-07-31T04:08:13;16.25;;;6.47;;
57567;SDS011;43403;51.948;5.922;2023-07-31T04:10:39;18.50;;;6.80;;
57567;SDS011;43403;51.948;5.922;2023-07-31T04:13:06;15.70;;;5.80;;
57567;SDS011;43403;51.948;5.922;2023-07-31T04:15:33;15.13;;;5.47;;
57567;SDS011;43403;51.948;5.922;2023-07-31T04:17:59;20.33;;;6.18;;
57567;SDS011;43403;51.948;5.922;2023-07-31T04:20:26;18.27;;;6.45;;
57567;SDS011;43403;51.948;5.922;2023-07-31T04:22:52;18.98;;;6.55;;
57567;SDS011;43403;51.948;5.922;2023-07-31T04:25:19;18.45;;;5.85;;
57567;SDS011;43403;51.948;5.922;2023-07-31T04:27:45;16.30;;;6.68;;
57567;SDS011;43403;51.948;5.922;2023-07-31T04:30:12;18.45;;;6.43;;
57567;SDS011;43403;51.948;5.922;2023-07-31T04:32:38;18.95;;;5.95;;
57567;SDS011;43403;51.948;5.922;2023-07-31T04:35:05;15.73;;;5.82;;
57567;SDS011;43403;51.948;5.922;2023-07-31T04:37:32;18.83;;;5.70;;
57567;SDS011;43403;51.948;5.922;2023-07-31T04:39:59;19.25;;;6.30;;
57567;SDS011;43403;51.948;5.922;2023-07-31T04:42:25;20.45;;;6.50;;
57567;SDS011;43403;51.948;5.922;2023-07-31T04:44:52;21.63;;;6.05;;
57567;SDS011;43403;51.948;5.922;2023-07-31T04:47:19;18.38;;;5.47;;
57567;SDS011;43403;51.948;5.922;2023-07-31T04:49:46;18.02;;;5.85;;
57567;SDS011;43403;51.948;5.922;2023-07-31T04:52:12;16.48;;;5.80;;
57567;SDS011;43403;51.948;5.922;2023-07-31T04:54:39;18.42;;;6.13;;
57567;SDS011;43403;51.948;5.922;2023-07-31T04:57:05;21.60;;;6.53;;
57567;SDS011;43403;51.948;5.922;2023-07-31T04:59:32;19.35;;;5.97;;
57567;SDS011;43403;51.948;5.922;2023-07-31T05:01:59;19.88;;;5.60;;
57567;SDS011;43403;51.948;5.922;2023-07-31T05:04:25;14.55;;;6.05;;
57567;SDS011;43403;51.948;5.922;2023-07-31T05:06:52;19.83;;;6.13;;
57567;SDS011;43403;51.948;5.922;2023-07-31T05:09:18;19.20;;;6.05;;
57567;SDS011;43403;51.948;5.922;2023-07-31T05:11:45;17.25;;;6.05;;
57567;SDS011;43403;51.948;5.922;2023-07-31T05:14:12;18.67;;;5.97;;
57567;SDS011;43403;51.948;5.922;2023-07-31T05:16:38;17.73;;;6.55;;
57567;SDS011;43403;51.948;5.922;2023-07-31T05:19:06;15.68;;;6.10;;
57567;SDS011;43403;51.948;5.922;2023-07-31T05:21:32;13.10;;;5.05;;
57567;SDS011;43403;51.948;5.922;2023-07-31T05:23:59;18.23;;;5.72;;
57567;SDS011;43403;51.948;5.922;2023-07-31T05:26:25;13.77;;;5.60;;
57567;SDS011;43403;51.948;5.922;2023-07-31T05:28:52;16.48;;;5.22;;
57567;SDS011;43403;51.948;5.922;2023-07-31T05:31:18;17.73;;;5.75;;
57567;SDS011;43403;51.948;5.922;2023-07-31T05:33:45;12.52;;;5.60;;
57567;SDS011;43403;51.948;5.922;2023-07-31T05:36:12;15.95;;;5.53;;
57567;SDS011;43403;51.948;5.922;2023-07-31T05:38:38;11.95;;;5.28;;
57567;SDS011;43403;51.948;5.922;2023-07-31T05:41:08;15.30;;;5.65;;
57567;SDS011;43403;51.948;5.922;2023-07-31T05:43:35;18.20;;;6.47;;
57567;SDS011;43403;51.948;5.922;2023-07-31T05:46:02;17.52;;;5.10;;
57567;SDS011;43403;51.948;5.922;2023-07-31T05:48:31;15.48;;;5.70;;
57567;SDS011;43403;51.948;5.922;2023-07-31T05:50:58;18.30;;;5.70;;
57567;SDS011;43403;51.948;5.922;2023-07-31T05:53:24;18.63;;;6.07;;
57567;SDS011;43403;51.948;5.922;2023-07-31T05:55:51;16.83;;;6.00;;
57567;SDS011;43403;51.948;5.922;2023-07-31T05:58:17;15.50;;;5.75;;
57567;SDS011;43403;51.948;5.922;2023-07-31T06:00:44;15.93;;;4.85;;
57567;SDS011;43403;51.948;5.922;2023-07-31T06:03:11;20.77;;;6.22;;
57567;SDS011;43403;51.948;5.922;2023-07-31T06:05:37;15.93;;;6.43;;
57567;SDS011;43403;51.948;5.922;2023-07-31T06:08:04;15.52;;;5.72;;
57567;SDS011;43403;51.948;5.922;2023-07-31T06:10:30;15.23;;;5.85;;
57567;SDS011;43403;51.948;5.922;2023-07-31T06:12:57;12.35;;;4.82;;
57567;SDS011;43403;51.948;5.922;2023-07-31T06:15:23;14.00;;;5.80;;
57567;SDS011;43403;51.948;5.922;2023-07-31T06:17:50;14.57;;;5.28;;
57567;SDS011;43403;51.948;5.922;2023-07-31T06:20:18;13.38;;;6.43;;
57567;SDS011;43403;51.948;5.922;2023-07-31T06:22:45;17.58;;;6.03;;
57567;SDS011;43403;51.948;5.922;2023-07-31T06:25:11;18.23;;;5.72;;
57567;SDS011;43403;51.948;5.922;2023-07-31T06:27:41;11.43;;;4.97;;
57567;SDS011;43403;51.948;5.922;2023-07-31T06:30:07;14.20;;;5.13;;
57567;SDS011;43403;51.948;5.922;2023-07-31T06:32:34;14.05;;;5.25;;
57567;SDS011;43403;51.948;5.922;2023-07-31T06:35:01;11.43;;;5.85;;
57567;SDS011;43403;51.948;5.922;2023-07-31T06:37:27;14.57;;;5.00;;
57567;SDS011;43403;51.948;5.922;2023-07-31T06:39:54;13.63;;;5.45;;
57567;SDS011;43403;51.948;5.922;2023-07-31T06:42:21;13.20;;;4.45;;
57567;SDS011;43403;51.948;5.922;2023-07-31T06:44:47;12.25;;;5.05;;
57567;SDS011;43403;51.948;5.922;2023-07-31T06:47:14;10.52;;;4.85;;
57567;SDS011;43403;51.948;5.922;2023-07-31T06:49:40;10.02;;;4.72;;
57567;SDS011;43403;51.948;5.922;2023-07-31T06:52:07;15.68;;;4.22;;
57567;SDS011;43403;51.948;5.922;2023-07-31T06:54:33;8.23;;;3.70;;
57567;SDS011;43403;51.948;5.922;2023-07-31T06:57:00;8.05;;;3.80;;
57567;SDS011;43403;51.948;5.922;2023-07-31T06:59:26;10.38;;;3.65;;
57567;SDS011;43403;51.948;5.922;2023-07-31T07:01:53;8.07;;;3.80;;
57567;SDS011;43403;51.948;5.922;2023-07-31T07:04:19;6.43;;;3.55;;
57567;SDS011;43403;51.948;5.922;2023-07-31T07:06:46;7.38;;;3.78;;
57567;SDS011;43403;51.948;5.922;2023-07-31T07:09:12;7.70;;;3.40;;
57567;SDS011;43403;51.948;5.922;2023-07-31T07:11:39;5.80;;;3.00;;
57567;SDS011;43403;51.948;5.922;2023-07-31T07:14:05;5.43;;;2.58;;
57567;SDS011;43403;51.948;5.922;2023-07-31T07:16:32;5.00;;;2.65;;
57567;SDS011;43403;51.948;5.922;2023-07-31T07:18:58;4.38;;;2.30;;
57567;SDS011;43403;51.948;5.922;2023-07-31T07:21:30;6.28;;;2.90;;
57567;SDS011;43403;51.948;5.922;2023-07-31T07:23:57;6.60;;;2.58;;
57567;SDS011;43403;51.948;5.922;2023-07-31T07:26:23;5.20;;;2.22;;
57567;SDS011;43403;51.948;5.922;2023-07-31T07:28:50;4.18;;;2.20;;
57567;SDS011;43403;51.948;5.922;2023-07-31T07:31:16;6.45;;;2.25;;
57567;SDS011;43403;51.948;5.922;2023-07-31T07:33:43;7.15;;;2.10;;
57567;SDS011;43403;51.948;5.922;2023-07-31T07:36:09;3.10;;;1.98;;
57567;SDS011;43403;51.948;5.922;2023-07-31T07:38:36;3.85;;;1.90;;
57567;SDS011;43403;51.948;5.922;2023-07-31T07:41:03;3.35;;;1.58;;
57567;SDS011;43403;51.948;5.922;2023-07-31T07:43:30;3.65;;;1.75;;
57567;SDS011;43403;51.948;5.922;2023-07-31T07:45:56;2.40;;;1.60;;
57567;SDS011;43403;51.948;5.922;2023-07-31T07:48:23;3.13;;;1.60;;
57567;SDS011;43403;51.948;5.922;2023-07-31T07:50:51;3.03;;;1.60;;
57567;SDS011;43403;51.948;5.922;2023-07-31T07:53:17;3.72;;;1.55;;
57567;SDS011;43403;51.948;5.922;2023-07-31T07:55:44;3.00;;;1.63;;
57567;SDS011;43403;51.948;5.922;2023-07-31T07:58:10;3.58;;;2.10;;
57567;SDS011;43403;51.948;5.922;2023-07-31T08:00:37;1.67;;;1.40;;
57567;SDS011;43403;51.948;5.922;2023-07-31T08:03:04;3.08;;;1.98;;
57567;SDS011;43403;51.948;5.922;2023-07-31T08:05:30;1.95;;;1.30;;
57567;SDS011;43403;51.948;5.922;2023-07-31T08:08:00;2.50;;;1.70;;
57567;SDS011;43403;51.948;5.922;2023-07-31T08:10:26;3.45;;;1.85;;
57567;SDS011;43403;51.948;5.922;2023-07-31T08:12:53;3.53;;;2.00;;
57567;SDS011;43403;51.948;5.922;2023-07-31T08:15:19;2.03;;;1.70;;
57567;SDS011;43403;51.948;5.922;2023-07-31T08:17:46;2.97;;;2.00;;
57567;SDS011;43403;51.948;5.922;2023-07-31T08:20:13;3.42;;;2.08;;
57567;SDS011;43403;51.948;5.922;2023-07-31T08:22:40;3.13;;;2.20;;
57567;SDS011;43403;51.948;5.922;2023-07-31T08:25:07;3.70;;;2.08;;
57567;SDS011;43403;51.948;5.922;2023-07-31T08:27:34;4.30;;;2.30;;
57567;SDS011;43403;51.948;5.922;2023-07-31T08:30:00;3.38;;;2.38;;
57567;SDS011;43403;51.948;5.922;2023-07-31T08:32:27;2.67;;;2.28;;
57567;SDS011;43403;51.948;5.922;2023-07-31T08:34:53;3.67;;;2.67;;
57567;SDS011;43403;51.948;5.922;2023-07-31T08:37:20;9.23;;;2.97;;
57567;SDS011;43403;51.948;5.922;2023-07-31T08:39:46;5.25;;;2.83;;
57567;SDS011;43403;51.948;5.922;2023-07-31T08:42:13;4.97;;;2.63;;
57567;SDS011;43403;51.948;5.922;2023-07-31T08:44:40;4.15;;;3.08;;
57567;SDS011;43403;51.948;5.922;2023-07-31T08:47:07;4.95;;;2.90;;
57567;SDS011;43403;51.948;5.922;2023-07-31T08:49:34;5.80;;;2.97;;
57567;SDS011;43403;51.948;5.922;2023-07-31T08:54:29;4.15;;;2.97;;
57567;SDS011;43403;51.948;5.922;2023-07-31T08:56:57;4.95;;;3.10;;
57567;SDS011;43403;51.948;5.922;2023-07-31T08:59:29;4.72;;;3.00;;
57567;SDS011;43403;51.948;5.922;2023-07-31T09:01:57;5.63;;;3.35;;
57567;SDS011;43403;51.948;5.922;2023-07-31T09:04:31;5.10;;;3.20;;
57567;SDS011;43403;51.948;5.922;2023-07-31T09:07:00;5.32;;;2.88;;
57567;SDS011;43403;51.948;5.922;2023-07-31T09:09:30;4.75;;;3.13;;
57567;SDS011;43403;51.948;5.922;2023-07-31T09:12:55;4.80;;;3.42;;
57567;SDS011;43403;51.948;5.922;2023-07-31T09:16:18;5.57;;;3.55;;
57567;SDS011;43403;51.948;5.922;2023-07-31T09:19:55;6.53;;;3.85;;
57567;SDS011;43403;51.948;5.922;2023-07-31T09:22:31;5.78;;;3.78;;
57567;SDS011;43403;51.948;5.922;2023-07-31T09:26:07;5.63;;;4.00;;
57567;SDS011;43403;51.948;5.922;2023-07-31T09:29:32;6.07;;;4.03;;
57567;SDS011;43403;51.948;5.922;2023-07-31T09:33:01;5.68;;;3.88;;
57567;SDS011;43403;51.948;5.922;2023-07-31T09:36:28;5.20;;;4.13;;
57567;SDS011;43403;51.948;5.922;2023-07-31T09:39:55;7.68;;;4.70;;
57567;SDS011;43403;51.948;5.922;2023-07-31T09:43:21;8.65;;;4.75;;
57567;SDS011;43403;51.948;5.922;2023-07-31T09:45:48;6.60;;;4.95;;
57567;SDS011;43403;51.948;5.922;2023-07-31T09:48:19;9.20;;;5.20;;
57567;SDS011;43403;51.948;5.922;2023-07-31T09:50:47;8.75;;;5.30;;
57567;SDS011;43403;51.948;5.922;2023-07-31T09:53:15;9.38;;;6.07;;
57567;SDS011;43403;51.948;5.922;2023-07-31T09:55:43;8.43;;;5.28;;
57567;SDS011;43403;51.948;5.922;2023-07-31T09:58:10;8.45;;;5.60;;
57567;SDS011;43403;51.948;5.922;2023-07-31T10:01:38;8.05;;;5.90;;
57567;SDS011;43403;51.948;5.922;2023-07-31T10:04:07;11.48;;;6.30;;
57567;SDS011;43403;51.948;5.922;2023-07-31T10:06:36;9.48;;;6.00;;
57567;SDS011;43403;51.948;5.922;2023-07-31T10:10:06;11.52;;;5.68;;
57567;SDS011;43403;51.948;5.922;2023-07-31T10:13:33;7.63;;;6.13;;
57567;SDS011;43403;51.948;5.922;2023-07-31T10:16:59;9.10;;;6.78;;
57567;SDS011;43403;51.948;5.922;2023-07-31T10:20:07;10.02;;;6.40;;
57567;SDS011;43403;51.948;5.922;2023-07-31T10:23:33;12.23;;;7.05;;
57567;SDS011;43403;51.948;5.922;2023-07-31T10:26:59;12.07;;;6.70;;
57567;SDS011;43403;51.948;5.922;2023-07-31T10:29:27;10.60;;;6.80;;
57567;SDS011;43403;51.948;5.922;2023-07-31T10:34:43;10.90;;;7.20;;
57567;SDS011;43403;51.948;5.922;2023-07-31T10:45:07;12.50;;;7.07;;
57567;SDS011;43403;51.948;5.922;2023-07-31T10:47:44;10.57;;;6.30;;
57567;SDS011;43403;51.948;5.922;2023-07-31T10:50:13;8.40;;;6.85;;
57567;SDS011;43403;51.948;5.922;2023-07-31T10:52:51;10.27;;;7.15;;
57567;SDS011;43403;51.948;5.922;2023-07-31T10:55:29;13.40;;;7.45;;
57567;SDS011;43403;51.948;5.922;2023-07-31T10:58:10;8.15;;;5.90;;
57567;SDS011;43403;51.948;5.922;2023-07-31T11:00:38;9.25;;;6.00;;
57567;SDS011;43403;51.948;5.922;2023-07-31T11:05:59;9.07;;;5.38;;
57567;SDS011;43403;51.948;5.922;2023-07-31T11:08:31;9.18;;;5.80;;
57567;SDS011;43403;51.948;5.922;2023-07-31T11:13:28;9.65;;;6.63;;
57567;SDS011;43403;51.948;5.922;2023-07-31T11:16:07;11.05;;;6.55;;
57567;SDS011;43403;51.948;5.922;2023-07-31T11:18:35;11.40;;;7.13;;
57567;SDS011;43403;51.948;5.922;2023-07-31T11:21:01;8.18;;;5.95;;
57567;SDS011;43403;51.948;5.922;2023-07-31T11:23:28;7.75;;;6.40;;
57567;SDS011;43403;51.948;5.922;2023-07-31T11:25:57;8.52;;;5.78;;
57567;SDS011;43403;51.948;5.922;2023-07-31T11:28:26;11.10;;;6.25;;
57567;SDS011;43403;51.948;5.922;2023-07-31T11:30:52;9.27;;;6.68;;
57567;SDS011;43403;51.948;5.922;2023-07-31T11:33:22;8.98;;;6.80;;
57567;SDS011;43403;51.948;5.922;2023-07-31T11:35:48;10.40;;;6.00;;
57567;SDS011;43403;51.948;5.922;2023-07-31T11:38:25;9.30;;;5.82;;
57567;SDS011;43403;51.948;5.922;2023-07-31T11:40:53;6.75;;;4.80;;
57567;SDS011;43403;51.948;5.922;2023-07-31T11:43:22;10.45;;;6.00;;
57567;SDS011;43403;51.948;5.922;2023-07-31T11:45:56;7.75;;;5.05;;
57567;SDS011;43403;51.948;5.922;2023-07-31T11:48:31;10.27;;;5.50;;
57567;SDS011;43403;51.948;5.922;2023-07-31T11:51:00;8.90;;;5.82;;
57567;SDS011;43403;51.948;5.922;2023-07-31T11:53:33;10.75;;;6.70;;
57567;SDS011;43403;51.948;5.922;2023-07-31T11:56:04;9.52;;;5.93;;
57567;SDS011;43403;51.948;5.922;2023-07-31T11:58:34;8.38;;;5.05;;
57567;SDS011;43403;51.948;5.922;2023-07-31T12:03:28;7.85;;;5.40;;
57567;SDS011;43403;51.948;5.922;2023-07-31T12:05:55;9.23;;;4.85;;
57567;SDS011;43403;51.948;5.922;2023-07-31T12:08:22;8.05;;;5.20;;
57567;SDS011;43403;51.948;5.922;2023-07-31T12:13:21;8.68;;;5.38;;
57567;SDS011;43403;51.948;5.922;2023-07-31T12:15:49;6.43;;;5.07;;
57567;SDS011;43403;51.948;5.922;2023-07-31T12:18:20;9.27;;;5.32;;
57567;SDS011;43403;51.948;5.922;2023-07-31T12:20:47;8.15;;;4.82;;
57567;SDS011;43403;51.948;5.922;2023-07-31T12:24:13;7.72;;;4.78;;
57567;SDS011;43403;51.948;5.922;2023-07-31T12:26:39;9.75;;;5.45;;
57567;SDS011;43403;51.948;5.922;2023-07-31T12:29:06;11.27;;;5.50;;
57567;SDS011;43403;51.948;5.922;2023-07-31T12:31:33;8.13;;;5.57;;
57567;SDS011;43403;51.948;5.922;2023-07-31T12:34:00;10.48;;;6.25;;
57567;SDS011;43403;51.948;5.922;2023-07-31T12:36:28;8.27;;;5.95;;
57567;SDS011;43403;51.948;5.922;2023-07-31T12:38:58;10.30;;;6.03;;
57567;SDS011;43403;51.948;5.922;2023-07-31T12:41:25;11.48;;;5.95;;
57567;SDS011;43403;51.948;5.922;2023-07-31T12:43:52;7.80;;;5.83;;
57567;SDS011;43403;51.948;5.922;2023-07-31T12:46:19;10.20;;;7.00;;
57567;SDS011;43403;51.948;5.922;2023-07-31T12:48:46;8.98;;;6.25;;
57567;SDS011;43403;51.948;5.922;2023-07-31T12:51:12;11.73;;;6.75;;
57567;SDS011;43403;51.948;5.922;2023-07-31T12:53:39;12.80;;;6.72;;
57567;SDS011;43403;51.948;5.922;2023-07-31T12:56:05;11.18;;;6.32;;
57567;SDS011;43403;51.948;5.922;2023-07-31T12:58:32;10.35;;;6.28;;
57567;SDS011;43403;51.948;5.922;2023-07-31T13:00:58;11.32;;;6.15;;
57567;SDS011;43403;51.948;5.922;2023-07-31T13:03:25;12.35;;;6.40;;
57567;SDS011;43403;51.948;5.922;2023-07-31T13:05:52;10.65;;;6.90;;
57567;SDS011;43403;51.948;5.922;2023-07-31T13:08:19;9.10;;;6.75;;
57567;SDS011;43403;51.948;5.922;2023-07-31T13:10:46;10.15;;;6.40;;
57567;SDS011;43403;51.948;5.922;2023-07-31T13:13:13;9.88;;;6.50;;
57567;SDS011;43403;51.948;5.922;2023-07-31T13:15:40;8.93;;;6.18;;
57567;SDS011;43403;51.948;5.922;2023-07-31T13:18:06;8.75;;;6.07;;
57567;SDS011;43403;51.948;5.922;2023-07-31T13:20:33;10.77;;;6.47;;
57567;SDS011;43403;51.948;5.922;2023-07-31T13:23:00;7.80;;;5.75;;
57567;SDS011;43403;51.948;5.922;2023-07-31T13:25:26;9.07;;;5.68;;
57567;SDS011;43403;51.948;5.922;2023-07-31T13:27:53;8.13;;;5.30;;
57567;SDS011;43403;51.948;5.922;2023-07-31T13:30:21;7.63;;;5.13;;
57567;SDS011;43403;51.948;5.922;2023-07-31T13:32:48;8.00;;;5.05;;
57567;SDS011;43403;51.948;5.922;2023-07-31T13:35:15;7.25;;;5.10;;
57567;SDS011;43403;51.948;5.922;2023-07-31T13:37:41;9.07;;;4.50;;
57567;SDS011;43403;51.948;5.922;2023-07-31T13:40:08;8.65;;;5.25;;
57567;SDS011;43403;51.948;5.922;2023-07-31T13:42:35;6.97;;;5.00;;
57567;SDS011;43403;51.948;5.922;2023-07-31T13:45:02;7.70;;;5.05;;
57567;SDS011;43403;51.948;5.922;2023-07-31T13:47:32;6.93;;;4.63;;
57567;SDS011;43403;51.948;5.922;2023-07-31T13:50:01;7.95;;;4.88;;
57567;SDS011;43403;51.948;5.922;2023-07-31T13:52:28;7.80;;;4.65;;
57567;SDS011;43403;51.948;5.922;2023-07-31T13:54:54;9.20;;;4.78;;
57567;SDS011;43403;51.948;5.922;2023-07-31T13:57:21;7.10;;;4.80;;
57567;SDS011;43403;51.948;5.922;2023-07-31T13:59:47;7.45;;;5.00;;
57567;SDS011;43403;51.948;5.922;2023-07-31T14:02:14;10.00;;;5.35;;
57567;SDS011;43403;51.948;5.922;2023-07-31T14:04:41;7.53;;;4.93;;
57567;SDS011;43403;51.948;5.922;2023-07-31T14:07:07;9.30;;;4.90;;
57567;SDS011;43403;51.948;5.922;2023-07-31T14:09:34;8.45;;;4.93;;
57567;SDS011;43403;51.948;5.922;2023-07-31T14:12:00;7.78;;;5.60;;
57567;SDS011;43403;51.948;5.922;2023-07-31T14:14:27;10.52;;;6.25;;
57567;SDS011;43403;51.948;5.922;2023-07-31T14:16:54;9.45;;;5.55;;
57567;SDS011;43403;51.948;5.922;2023-07-31T14:19:20;10.15;;;5.88;;
57567;SDS011;43403;51.948;5.922;2023-07-31T14:21:47;9.50;;;5.90;;
57567;SDS011;43403;51.948;5.922;2023-07-31T14:24:26;8.35;;;5.20;;
57567;SDS011;43403;51.948;5.922;2023-07-31T14:26:52;7.35;;;5.63;;
57567;SDS011;43403;51.948;5.922;2023-07-31T14:29:19;10.60;;;6.32;;
57567;SDS011;43403;51.948;5.922;2023-07-31T14:31:45;16.10;;;6.20;;
57567;SDS011;43403;51.948;5.922;2023-07-31T14:34:12;10.98;;;6.35;;
57567;SDS011;43403;51.948;5.922;2023-07-31T14:36:39;12.77;;;6.38;;
57567;SDS011;43403;51.948;5.922;2023-07-31T14:39:06;12.00;;;6.63;;
57567;SDS011;43403;51.948;5.922;2023-07-31T14:41:32;12.63;;;6.43;;
57567;SDS011;43403;51.948;5.922;2023-07-31T14:43:59;9.57;;;5.60;;
57567;SDS011;43403;51.948;5.922;2023-07-31T14:46:26;10.45;;;5.35;;
57567;SDS011;43403;51.948;5.922;2023-07-31T14:48:52;8.40;;;5.70;;
57567;SDS011;43403;51.948;5.922;2023-07-31T14:51:19;10.23;;;5.35;;
57567;SDS011;43403;51.948;5.922;2023-07-31T14:53:46;9.48;;;6.10;;
57567;SDS011;43403;51.948;5.922;2023-07-31T14:56:13;9.55;;;6.15;;
57567;SDS011;43403;51.948;5.922;2023-07-31T14:58:40;10.15;;;5.80;;
57567;SDS011;43403;51.948;5.922;2023-07-31T15:01:06;14.35;;;6.65;;
57567;SDS011;43403;51.948;5.922;2023-07-31T15:03:33;9.73;;;6.00;;
57567;SDS011;43403;51.948;5.922;2023-07-31T15:05:59;12.82;;;6.88;;
57567;SDS011;43403;51.948;5.922;2023-07-31T15:08:26;10.77;;;5.88;;
57567;SDS011;43403;51.948;5.922;2023-07-31T15:10:54;9.77;;;5.80;;
57567;SDS011;43403;51.948;5.922;2023-07-31T15:13:24;8.90;;;5.35;;
57567;SDS011;43403;51.948;5.922;2023-07-31T15:15:50;12.57;;;5.55;;
57567;SDS011;43403;51.948;5.922;2023-07-31T15:18:17;8.65;;;5.35;;
57567;SDS011;43403;51.948;5.922;2023-07-31T15:20:44;10.13;;;4.75;;
57567;SDS011;43403;51.948;5.922;2023-07-31T15:23:10;10.30;;;4.82;;
57567;SDS011;43403;51.948;5.922;2023-07-31T15:25:37;8.05;;;5.15;;
57567;SDS011;43403;51.948;5.922;2023-07-31T15:28:03;12.50;;;5.22;;
57567;SDS011;43403;51.948;5.922;2023-07-31T15:30:31;9.02;;;4.63;;
57567;SDS011;43403;51.948;5.922;2023-07-31T15:32:58;8.50;;;4.85;;
57567;SDS011;43403;51.948;5.922;2023-07-31T15:35:25;11.38;;;5.28;;